createdAt,value
2022-10-15T00:02:27.381Z,99635.13
2022-10-15T00:07:29.380Z,99638.97
2022-10-15T00:12:31.414Z,99639.28
2022-10-15T00:17:34.075Z,99642.56
2022-10-15T00:22:36.733Z,99653.34
2022-10-15T00:27:38.519Z,99655.56
2022-10-15T00:32:40.271Z,99652.50
2022-10-15T00:37:44.045Z,99658.03
2022-10-15T00:42:45.965Z,99659.41
2022-10-15T00:47:49.387Z,99657.22
2022-10-15T00:53:13.901Z,99664.09
2022-10-15T00:58:22.395Z,99666.59
2022-10-15T01:03:24.276Z,99672.94
2022-10-15T01:08:25.907Z,99670.72
2022-10-15T01:13:40.466Z,99674.63
2022-10-15T01:18:55.610Z,99678.19
2022-10-15T01:24:12.326Z,99676.84
2022-10-15T01:29:25.415Z,99679.59
2022-10-15T01:34:45.044Z,99679.59
2022-10-15T01:40:09.065Z,99668.31
2022-10-15T01:45:20.882Z,99675.44
2022-10-15T01:50:39.672Z,99671.88
2022-10-15T01:55:44.087Z,99674.63
2022-10-15T02:00:47.530Z,99684.56
2022-10-15T02:05:55.753Z,99686.22
2022-10-15T02:11:05.823Z,99700.56
2022-10-15T02:16:23.661Z,99708.56
2022-10-15T02:21:56.593Z,99715.72
2022-10-15T02:27:01.534Z,99700.00
2022-10-15T02:32:06.296Z,99724.81
2022-10-15T02:37:08.935Z,99724.56
2022-10-15T02:42:10.600Z,99725.69
2022-10-15T02:47:12.765Z,99714.91
2022-10-15T02:52:14.531Z,99736.72
2022-10-15T02:57:19.063Z,99736.44
2022-10-15T03:02:21.032Z,99744.41
2022-10-15T03:07:23.123Z,99743.34
2022-10-15T03:12:26.013Z,99755.44
2022-10-15T03:17:28.347Z,99751.88
2022-10-15T03:22:30.049Z,99768.69
2022-10-15T03:27:32.368Z,99765.94
2022-10-15T03:32:36.216Z,99768.69
2022-10-15T03:37:39.897Z,99785.50
2022-10-15T03:42:43.973Z,99782.75
2022-10-15T03:47:46.604Z,99800.69
2022-10-15T03:52:48.286Z,99804.25
2022-10-15T03:57:50.155Z,99806.19
2022-10-15T04:02:53.120Z,99805.91
2022-10-15T04:08:00.377Z,99810.31
2022-10-15T04:13:04.528Z,99815.84
2022-10-15T04:18:08.475Z,99824.09
2022-10-15T04:23:11.588Z,99837.34
2022-10-15T04:28:16.751Z,99845.63
2022-10-15T04:33:20.559Z,99857.16
2022-10-15T04:38:26.837Z,99874.25
2022-10-15T04:43:37.475Z,99876.44
2022-10-15T04:48:43.359Z,99883.84
2022-10-15T04:53:48.004Z,99892.69
2022-10-15T04:58:50.956Z,99901.75
2022-10-15T05:03:52.884Z,99893.75
2022-10-15T05:08:54.611Z,99904.19
2022-10-15T05:14:01.105Z,99912.69
2022-10-15T05:19:07.528Z,99915.16
2022-10-15T05:24:11.669Z,99918.16
2022-10-15T05:29:39.902Z,99935.28
2022-10-15T05:34:41.512Z,99934.44
2022-10-15T05:39:48.621Z,99935.22
2022-10-15T05:44:50.760Z,99951.25
2022-10-15T05:49:52.540Z,99957.31
2022-10-15T05:55:05.714Z,99962.56
2022-10-15T06:00:08.272Z,99967.28
2022-10-15T06:05:15.830Z,99980.25
2022-10-15T06:10:17.588Z,99985.50
2022-10-15T06:15:19.511Z,99996.28
2022-10-15T06:20:21.073Z,100003.47
2022-10-15T06:25:22.644Z,100003.25
2022-10-15T06:30:24.255Z,100004.38
2022-10-15T06:35:26.875Z,100017.34
2022-10-15T06:40:29.166Z,100029.25
2022-10-15T06:45:30.755Z,100024.94
2022-10-15T06:50:33.663Z,100032.19
2022-10-15T06:55:35.588Z,100041.94
2022-10-15T07:00:39.502Z,100065.75
2022-10-15T07:05:41.052Z,100073.78
2022-10-15T07:10:42.624Z,100075.19
2022-10-15T07:15:46.247Z,100073.72
2022-10-15T07:20:48.093Z,100069.53
2022-10-15T07:25:49.649Z,100083.03
2022-10-15T07:30:51.479Z,100075.31
2022-10-15T07:35:53.032Z,100087.19
2022-10-15T07:40:58.806Z,100089.69
2022-10-15T07:46:01.481Z,100090.84
2022-10-15T07:51:06.372Z,100106.38
2022-10-15T07:56:12.554Z,100117.22
2022-10-15T08:01:14.116Z,100126.66
2022-10-15T08:06:16.120Z,100128.59
2022-10-15T08:11:17.766Z,100131.38
2022-10-15T08:16:21.950Z,100125.75
2022-10-15T08:21:32.439Z,100122.69
2022-10-15T08:26:34.645Z,100138.75
2022-10-15T08:31:36.248Z,100139.66
2022-10-15T08:36:37.813Z,100149.13
2022-10-15T08:41:45.429Z,100153.28
2022-10-15T08:46:50.961Z,100143.56
2022-10-15T08:52:03.391Z,100145.72
2022-10-15T08:57:21.683Z,100143.56
2022-10-15T09:02:30.847Z,100150.78
2022-10-15T09:07:39.315Z,100165.25
2022-10-15T09:13:02.597Z,100167.47
2022-10-15T09:18:04.837Z,100170.63
2022-10-15T09:23:18.656Z,100182.31
2022-10-15T09:28:25.852Z,100183.41
2022-10-15T09:33:40.018Z,100186.38
2022-10-15T09:38:53.708Z,100161.31
2022-10-15T09:43:58.492Z,100114.25
2022-10-15T09:49:18.787Z,100040.97
2022-10-15T09:54:52.347Z,100002.66
2022-10-15T09:59:55.188Z,99998.84
2022-10-15T10:04:56.859Z,99994.41
2022-10-15T10:10:03.699Z,100001.03
2022-10-15T10:15:08.868Z,100007.03
2022-10-15T10:20:15.716Z,100017.31
2022-10-15T10:25:23.291Z,100015.38
2022-10-15T10:30:24.999Z,99989.66
2022-10-15T10:35:44.375Z,99969.06
2022-10-15T10:40:51.435Z,99944.75
2022-10-15T10:45:56.967Z,99936.63
2022-10-15T10:51:06.955Z,99915.97
2022-10-15T10:56:13.630Z,99910.25
2022-10-15T11:01:15.764Z,99910.56
2022-10-15T11:06:37.466Z,99905.34
2022-10-15T11:12:11.163Z,99909.63
2022-10-15T11:17:34.358Z,99894.59
2022-10-15T11:22:50.644Z,99895.16
2022-10-15T11:28:21.505Z,99884.94
2022-10-15T11:33:41.500Z,99885.75
2022-10-15T11:38:51.951Z,99888.53
2022-10-15T11:44:32.068Z,99885.97
2022-10-15T11:49:55.556Z,99887.47
2022-10-15T11:55:19.072Z,99892.81
2022-10-15T12:00:35.294Z,99886.94
2022-10-15T12:05:43.736Z,99881.38
2022-10-15T12:11:21.065Z,99868.94
2022-10-15T12:16:30.278Z,99876.75
2022-10-15T12:21:44.104Z,99869.69
2022-10-15T12:26:45.667Z,99849.38
2022-10-15T12:31:50.731Z,99847.19
2022-10-15T12:37:26.585Z,99851.09
2022-10-15T12:42:34.569Z,99854.28
2022-10-15T12:48:16.408Z,99853.13
2022-10-15T12:53:28.814Z,99849.31
2022-10-15T12:58:37.666Z,99849.91
2022-10-15T13:03:43.934Z,99849.78
2022-10-15T13:08:49.292Z,99849.63
2022-10-15T13:14:17.359Z,99834.91
2022-10-15T13:19:20.523Z,99834.38
2022-10-15T13:24:27.822Z,99836.66
2022-10-15T13:29:29.474Z,99837.47
2022-10-15T13:34:35.038Z,99833.66
2022-10-15T13:39:41.457Z,99834.06
2022-10-15T13:44:44.426Z,99824.41
2022-10-15T13:49:46.014Z,99834.41
2022-10-15T13:54:47.695Z,99825.44
2022-10-15T13:59:49.353Z,99829.34
2022-10-15T14:04:50.933Z,99815.28
2022-10-15T14:09:53.093Z,99811.19
2022-10-15T14:15:56.173Z,99810.91
2022-10-15T14:20:58.064Z,99809.81
2022-10-15T14:26:04.106Z,99802.88
2022-10-15T14:31:06.790Z,99821.09
2022-10-15T14:36:30.066Z,99812.84
2022-10-15T14:41:34.406Z,99809.19
2022-10-15T14:46:43.410Z,99824.41
2022-10-15T14:51:46.054Z,99827.13
2022-10-15T14:56:50.210Z,99837.13
2022-10-15T15:02:01.700Z,99835.47
2022-10-15T15:07:17.101Z,99837.41
2022-10-15T15:12:25.499Z,99832.19
2022-10-15T15:17:30.513Z,99838.31
2022-10-15T15:22:33.244Z,99842.22
2022-10-15T15:27:37.314Z,99838.38
2022-10-15T15:32:39.281Z,99848.34
2022-10-15T15:37:40.818Z,99843.69
2022-10-15T15:42:42.769Z,99844.78
2022-10-15T15:47:44.345Z,99843.69
2022-10-15T15:52:46.211Z,99850.63
2022-10-15T15:57:47.879Z,99849.03
2022-10-15T16:02:51.177Z,99857.09
2022-10-15T16:07:54.595Z,99860.41
2022-10-15T16:12:56.371Z,99867.34
2022-10-15T16:17:57.952Z,99867.88
2022-10-15T16:22:59.555Z,99877.25
2022-10-15T16:28:01.941Z,99879.69
2022-10-15T16:33:03.832Z,99893.22
2022-10-15T16:38:05.803Z,99899.56
2022-10-15T16:43:07.414Z,99897.09
2022-10-15T16:48:09.196Z,99898.72
2022-10-15T16:53:10.739Z,99903.16
2022-10-15T16:58:12.292Z,99915.28
2022-10-15T17:03:14.016Z,99916.09
2022-10-15T17:08:15.787Z,99933.78
2022-10-15T17:13:20.141Z,99926.34
2022-10-15T17:18:21.708Z,99928.03
2022-10-15T17:23:23.268Z,99942.91
2022-10-15T17:28:25.065Z,99943.47
2022-10-15T17:33:26.674Z,99940.41
2022-10-15T17:38:28.245Z,99947.63
2022-10-15T17:43:29.805Z,99955.66
2022-10-15T17:48:31.728Z,99955.38
2022-10-15T17:53:33.744Z,99962.03
2022-10-15T17:58:35.823Z,99961.47
2022-10-15T18:03:37.365Z,99969.50
2022-10-15T18:08:39.241Z,99972.25
2022-10-15T18:13:41.096Z,99972.00
2022-10-15T18:18:42.633Z,99967.84
2022-10-15T18:23:44.529Z,99971.72
2022-10-15T18:28:47.395Z,99975.03
2022-10-15T18:33:55.437Z,99980.84
2022-10-15T18:38:57.914Z,99987.50
2022-10-15T18:44:02.266Z,99993.31
2022-10-15T18:49:06.580Z,99993.56
2022-10-15T18:54:10.716Z,99993.03
2022-10-15T18:59:12.819Z,99989.44
2022-10-15T19:04:16.491Z,99989.44
2022-10-15T19:09:24.219Z,99995.53
2022-10-15T19:14:28.167Z,99998.84
2022-10-15T19:19:29.863Z,99993.88
2022-10-15T19:24:32.118Z,99993.34
2022-10-15T19:29:35.235Z,99990.56
2022-10-15T19:34:37.064Z,99999.72
2022-10-15T19:39:39.617Z,100009.09
2022-10-15T19:44:41.308Z,100015.97
2022-10-15T19:49:42.842Z,100032.00
2022-10-15T19:54:44.420Z,100032.81
2022-10-15T19:59:46.012Z,100040.25
2022-10-15T20:04:47.528Z,100051.88
2022-10-15T20:09:50.258Z,100052.31
2022-10-15T20:14:51.844Z,100041.16
2022-10-15T20:19:53.812Z,100035.09
2022-10-15T20:24:55.374Z,100046.38
2022-10-15T20:29:56.979Z,100033.69
2022-10-15T20:34:58.507Z,100038.97
2022-10-15T20:40:00.872Z,100048.06
2022-10-15T20:45:11.332Z,100043.16
2022-10-15T20:50:19.288Z,100048.94
2022-10-15T20:55:21.169Z,100060.31
2022-10-15T21:00:23.216Z,100057.28
2022-10-15T21:05:24.819Z,100054.81
2022-10-15T21:10:27.056Z,100062.03
2022-10-15T21:15:30.577Z,100072.81
2022-10-15T21:20:32.236Z,100078.91
2022-10-15T21:25:34.264Z,100090.56
2022-10-15T21:30:40.276Z,100102.22
2022-10-15T21:35:41.831Z,100104.47
2022-10-15T21:40:43.458Z,100100.88
2022-10-15T21:45:45.123Z,100099.25
2022-10-15T21:50:47.734Z,100101.44
2022-10-15T21:55:53.802Z,100113.06
2022-10-15T22:00:55.342Z,100105.59
2022-10-15T22:05:58.694Z,100114.44
2022-10-15T22:11:15.563Z,100116.34
2022-10-15T22:16:18.146Z,100128.78
2022-10-15T22:21:22.716Z,100118.28
2022-10-15T22:26:28.016Z,100111.56
2022-10-15T22:31:29.984Z,100116.78
2022-10-15T22:36:31.896Z,100116.44
2022-10-15T22:41:36.017Z,100115.81
2022-10-15T22:46:39.960Z,100108.03
2022-10-15T22:51:42.178Z,100109.88
2022-10-15T22:56:43.747Z,100102.00
2022-10-15T23:01:45.584Z,100090.59
2022-10-15T23:06:47.214Z,100077.19
2022-10-15T23:11:48.877Z,100103.25
2022-10-15T23:16:50.437Z,100106.78
2022-10-15T23:21:55.351Z,100104.06
2022-10-15T23:26:56.984Z,100097.97
2022-10-15T23:31:58.588Z,100109.56
2022-10-15T23:37:00.551Z,100114.66
2022-10-15T23:42:02.114Z,100121.47
2022-10-15T23:47:03.699Z,100115.31
2022-10-15T23:52:05.264Z,100124.97
2022-10-15T23:57:06.790Z,100117.59
